^^
Station Historical Data
Daily Summary for January 16, 2017 Units:  Both    English   Metric
« Previous Day
Next Day »
Daily Weekly Monthly Yearly Custom
  High: Low: Average:
Temperature: 90.0 °F /  32.2 °C 64.0 °F /  17.8 °C 76.8 °F /  24.9 °C
Dew Point: 56.5 °F /  13.6 °C 38.7 °F /  3.7 °C 51.3 °F /  10.7 °C
Humidity: 75% 23% 44%
Wind Speed: 8.9mph /  14.3km/h - 2.2mph /  3.5km/h
Wind Gust: 16.0mph /  25.7km/h - -
Wind- - SE
Pressure: 29.66 in /  1004.3 hPa 29.56 in /  1000.9 hPa -
Precipitation: 0.00 in /  0 mm    
Historical Graphs
 
 
Tabular Data for January 16, 2017
Time Temperature Dew Point Pressure Wind Wind Speed Wind Gust Humidity Rainfall Rate (Hourly) solar Conditions
00:02 74.7 °F /  23.7 °C 47.3 °F /  8.5 °C 29.62in /  1002.9hPa Calm     38% 0.00in /  0mm 0.0 W/m2
00:09 74.1 °F /  23.4 °C 46.9 °F /  8.3 °C 29.62in /  1002.9hPa Calm   3.0mph /  4.8km/h 38% 0.00in /  0mm 0.0 W/m2
00:15 73.8 °F /  23.2 °C 48.6 °F /  9.2 °C 29.62in /  1002.9hPa Calm   1.0mph /  1.6km/h 41% 0.00in /  0mm 0.0 W/m2
00:21 73.2 °F /  22.9 °C 47.5 °F /  8.6 °C 29.62in /  1002.9hPa Calm   2.0mph /  3.2km/h 40% 0.00in /  0mm 0.0 W/m2
00:27 72.9 °F /  22.7 °C 48.4 °F /  9.1 °C 29.62in /  1002.9hPa Calm   1.0mph /  1.6km/h 42% 0.00in /  0mm 0.0 W/m2
00:33 72.7 °F /  22.6 °C 46.9 °F /  8.3 °C 29.62in /  1002.9hPa SE 2.9mph /  4.7km/h 4.0mph /  6.4km/h 40% 0.00in /  0mm 0.0 W/m2
00:39 72.9 °F /  22.7 °C 46.4 °F /  8 °C 29.62in /  1002.9hPa East 2.0mph /  3.2km/h 2.0mph /  3.2km/h 39% 0.00in /  0mm 0.0 W/m2
00:45 72.9 °F /  22.7 °C 47.1 °F /  8.4 °C 29.62in /  1002.9hPa ENE 0.9mph /  1.4km/h 4.0mph /  6.4km/h 40% 0.00in /  0mm 0.0 W/m2
00:52 72.9 °F /  22.7 °C 47.8 °F /  8.8 °C 29.62in /  1002.9hPa Calm     41% 0.00in /  0mm 0.0 W/m2
00:58 72.7 °F /  22.6 °C 48.9 °F /  9.4 °C 29.62in /  1002.9hPa Calm     43% 0.00in /  0mm 0.0 W/m2
01:04 72.1 °F /  22.3 °C 48.4 °F /  9.1 °C 29.62in /  1002.9hPa Calm     43% 0.00in /  0mm 0.0 W/m2
01:10 71.8 °F /  22.1 °C 48.7 °F /  9.3 °C 29.62in /  1002.9hPa Calm   1.0mph /  1.6km/h 44% 0.00in /  0mm 0.0 W/m2
01:16 71.2 °F /  21.8 °C 48.7 °F /  9.3 °C 29.62in /  1002.9hPa Calm   2.0mph /  3.2km/h 45% 0.00in /  0mm 0.0 W/m2
01:22 70.9 °F /  21.6 °C 49.1 °F /  9.5 °C 29.61in /  1002.6hPa Calm     46% 0.00in /  0mm 0.0 W/m2
01:28 70.5 °F /  21.4 °C 49.3 °F /  9.6 °C 29.61in /  1002.6hPa Calm     47% 0.00in /  0mm 0.0 W/m2
01:35 70.3 °F /  21.3 °C 49.6 °F /  9.8 °C 29.61in /  1002.6hPa Calm   1.0mph /  1.6km/h 48% 0.00in /  0mm 0.0 W/m2
01:41 69.8 °F /  21 °C 49.3 °F /  9.6 °C 29.60in /  1002.3hPa Calm   1.0mph /  1.6km/h 48% 0.00in /  0mm 0.0 W/m2
01:47 69.6 °F /  20.9 °C 50.2 °F /  10.1 °C 29.61in /  1002.6hPa Calm   1.0mph /  1.6km/h 50% 0.00in /  0mm 0.0 W/m2
01:53 69.3 °F /  20.7 °C 49.8 °F /  9.9 °C 29.61in /  1002.6hPa Calm     50% 0.00in /  0mm 0.0 W/m2
01:59 69.1 °F /  20.6 °C 50.7 °F /  10.4 °C 29.61in /  1002.6hPa Calm   1.0mph /  1.6km/h 52% 0.00in /  0mm 0.0 W/m2
02:05 69.1 °F /  20.6 °C 52.7 °F /  11.5 °C 29.61in /  1002.6hPa Calm   2.0mph /  3.2km/h 56% 0.00in /  0mm 0.0 W/m2
02:12 69.1 °F /  20.6 °C 54.1 °F /  12.3 °C 29.60in /  1002.3hPa NE 2.0mph /  3.2km/h 3.0mph /  4.8km/h 59% 0.00in /  0mm 0.0 W/m2
02:18 69.3 °F /  20.7 °C 54.3 °F /  12.4 °C 29.60in /  1002.3hPa Calm     59% 0.00in /  0mm 0.0 W/m2
02:24 69.1 °F /  20.6 °C 51.3 °F /  10.7 °C 29.60in /  1002.3hPa Calm   4.0mph /  6.4km/h 53% 0.00in /  0mm 0.0 W/m2
02:30 69.1 °F /  20.6 °C 51.3 °F /  10.7 °C 29.60in /  1002.3hPa Calm   1.0mph /  1.6km/h 53% 0.00in /  0mm 0.0 W/m2
02:36 68.7 °F /  20.4 °C 51.4 °F /  10.8 °C 29.60in /  1002.3hPa Calm   1.0mph /  1.6km/h 54% 0.00in /  0mm 0.0 W/m2
02:42 68.7 °F /  20.4 °C 52.9 °F /  11.6 °C 29.59in /  1001.9hPa Calm     57% 0.00in /  0mm 0.0 W/m2
02:48 68.5 °F /  20.3 °C 52.7 °F /  11.5 °C 29.59in /  1001.9hPa Calm     57% 0.00in /  0mm 0.0 W/m2
02:55 68.4 °F /  20.2 °C 53.1 °F /  11.7 °C 29.59in /  1001.9hPa Calm     58% 0.00in /  0mm 0.0 W/m2
03:01 68.4 °F /  20.2 °C 54.0 °F /  12.2 °C 29.59in /  1001.9hPa Calm   2.0mph /  3.2km/h 60% 0.00in /  0mm 0.0 W/m2
03:07 68.2 °F /  20.1 °C 53.2 °F /  11.8 °C 29.59in /  1001.9hPa Calm     59% 0.00in /  0mm 0.0 W/m2
03:13 67.8 °F /  19.9 °C 53.4 °F /  11.9 °C 29.59in /  1001.9hPa Calm     60% 0.00in /  0mm 0.0 W/m2
03:19 67.6 °F /  19.8 °C 53.2 °F /  11.8 °C 29.58in /  1001.6hPa Calm     60% 0.00in /  0mm 0.0 W/m2
03:25 67.3 °F /  19.6 °C 53.4 °F /  11.9 °C 29.58in /  1001.6hPa Calm     61% 0.00in /  0mm 0.0 W/m2
03:31 66.9 °F /  19.4 °C 53.4 °F /  11.9 °C 29.59in /  1001.9hPa ESE 0.9mph /  1.4km/h 2.0mph /  3.2km/h 62% 0.00in /  0mm 0.0 W/m2
03:37 66.7 °F /  19.3 °C 53.2 °F /  11.8 °C 29.59in /  1001.9hPa NNE 2.9mph /  4.7km/h 4.0mph /  6.4km/h 62% 0.00in /  0mm 0.0 W/m2
03:44 66.7 °F /  19.3 °C 54.1 °F /  12.3 °C 29.59in /  1001.9hPa NNE 0.9mph /  1.4km/h 4.0mph /  6.4km/h 64% 0.00in /  0mm 0.0 W/m2
03:50 66.7 °F /  19.3 °C 54.7 °F /  12.6 °C 29.59in /  1001.9hPa NE 0.9mph /  1.4km/h 3.0mph /  4.8km/h 65% 0.00in /  0mm 0.0 W/m2
03:56 66.6 °F /  19.2 °C 54.9 °F /  12.7 °C 29.59in /  1001.9hPa NE 2.0mph /  3.2km/h 3.0mph /  4.8km/h 66% 0.00in /  0mm 0.0 W/m2
04:02 66.6 °F /  19.2 °C 55.2 °F /  12.9 °C 29.59in /  1001.9hPa ENE 2.9mph /  4.7km/h 6.0mph /  9.7km/h 67% 0.00in /  0mm 0.0 W/m2
04:08 66.6 °F /  19.2 °C 55.2 °F /  12.9 °C 29.59in /  1001.9hPa ENE 2.9mph /  4.7km/h 5.0mph /  8km/h 67% 0.00in /  0mm 0.0 W/m2
04:14 66.6 °F /  19.2 °C 55.2 °F /  12.9 °C 29.59in /  1001.9hPa ENE 2.0mph /  3.2km/h 4.0mph /  6.4km/h 67% 0.00in /  0mm 0.0 W/m2
04:20 66.6 °F /  19.2 °C 55.2 °F /  12.9 °C 29.59in /  1001.9hPa Calm   1.0mph /  1.6km/h 67% 0.00in /  0mm 0.0 W/m2
04:27 66.7 °F /  19.3 °C 55.4 °F /  13 °C 29.59in /  1001.9hPa ESE 2.0mph /  3.2km/h 4.0mph /  6.4km/h 67% 0.00in /  0mm 0.0 W/m2
04:33 66.7 °F /  19.3 °C 55.8 °F /  13.2 °C 29.59in /  1001.9hPa Calm   2.0mph /  3.2km/h 68% 0.00in /  0mm 0.0 W/m2
04:39 66.6 °F /  19.2 °C 55.6 °F /  13.1 °C 29.59in /  1001.9hPa East 2.9mph /  4.7km/h 3.0mph /  4.8km/h 68% 0.00in /  0mm 0.0 W/m2
04:45 66.6 °F /  19.2 °C 55.6 °F /  13.1 °C 29.60in /  1002.3hPa Calm   1.0mph /  1.6km/h 68% 0.00in /  0mm 0.0 W/m2
04:51 66.4 °F /  19.1 °C 55.6 °F /  13.1 °C 29.60in /  1002.3hPa Calm   1.0mph /  1.6km/h 68% 0.00in /  0mm 0.0 W/m2
04:57 66.2 °F /  19 °C 55.8 °F /  13.2 °C 29.61in /  1002.6hPa Calm     69% 0.00in /  0mm 0.0 W/m2
05:04 66.0 °F /  18.9 °C 55.6 °F /  13.1 °C 29.61in /  1002.6hPa Calm     69% 0.00in /  0mm 0.0 W/m2
05:09 65.8 °F /  18.8 °C 55.4 °F /  13 °C 29.60in /  1002.3hPa Calm   1.0mph /  1.6km/h 69% 0.00in /  0mm 0.0 W/m2
05:16 65.7 °F /  18.7 °C 55.2 °F /  12.9 °C 29.60in /  1002.3hPa Calm   2.0mph /  3.2km/h 69% 0.00in /  0mm 0.0 W/m2
05:22 65.7 °F /  18.7 °C 55.2 °F /  12.9 °C 29.61in /  1002.6hPa Calm     69% 0.00in /  0mm 0.0 W/m2
05:28 65.7 °F /  18.7 °C 55.2 °F /  12.9 °C 29.61in /  1002.6hPa Calm   1.0mph /  1.6km/h 69% 0.00in /  0mm 0.0 W/m2
05:34 65.5 °F /  18.6 °C 55.4 °F /  13 °C 29.61in /  1002.6hPa Calm     70% 0.00in /  0mm 0.0 W/m2
05:40 65.3 °F /  18.5 °C 55.2 °F /  12.9 °C 29.62in /  1002.9hPa Calm     70% 0.00in /  0mm 0.0 W/m2
05:46 65.1 °F /  18.4 °C 55.0 °F /  12.8 °C 29.61in /  1002.6hPa Calm     70% 0.00in /  0mm 0.0 W/m2
05:52 64.9 °F /  18.3 °C 55.4 °F /  13 °C 29.61in /  1002.6hPa Calm   1.0mph /  1.6km/h 71% 0.00in /  0mm 0.0 W/m2
05:58 64.9 °F /  18.3 °C 55.4 °F /  13 °C 29.62in /  1002.9hPa Calm   1.0mph /  1.6km/h 71% 0.00in /  0mm 0.0 W/m2
06:05 64.8 °F /  18.2 °C 55.2 °F /  12.9 °C 29.62in /  1002.9hPa Calm     71% 0.00in /  0mm 0.0 W/m2
06:11 64.8 °F /  18.2 °C 55.2 °F /  12.9 °C 29.62in /  1002.9hPa Calm     71% 0.00in /  0mm 0.0 W/m2
06:17 64.8 °F /  18.2 °C 55.6 °F /  13.1 °C 29.62in /  1002.9hPa Calm     72% 0.00in /  0mm 0.0 W/m2
06:23 64.8 °F /  18.2 °C 55.6 °F /  13.1 °C 29.62in /  1002.9hPa Calm   1.0mph /  1.6km/h 72% 0.00in /  0mm 5.0 W/m2
06:29 64.6 °F /  18.1 °C 55.4 °F /  13 °C 29.62in /  1002.9hPa Calm   1.0mph /  1.6km/h 72% 0.00in /  0mm 7.0 W/m2
06:35 64.4 °F /  18 °C 55.6 °F /  13.1 °C 29.62in /  1002.9hPa Calm   1.0mph /  1.6km/h 73% 0.00in /  0mm 11.0 W/m2
06:41 64.2 °F /  17.9 °C 55.4 °F /  13 °C 29.62in /  1002.9hPa Calm   1.0mph /  1.6km/h 73% 0.00in /  0mm 12.0 W/m2
06:47 64.2 °F /  17.9 °C 55.8 °F /  13.2 °C 29.62in /  1002.9hPa Calm     74% 0.00in /  0mm 14.0 W/m2
06:54 64.0 °F /  17.8 °C 55.6 °F /  13.1 °C 29.62in /  1002.9hPa Calm   1.0mph /  1.6km/h 74% 0.00in /  0mm 16.0 W/m2
07:00 64.0 °F /  17.8 °C 55.6 °F /  13.1 °C 29.62in /  1002.9hPa East 2.0mph /  3.2km/h 3.0mph /  4.8km/h 74% 0.00in /  0mm 19.0 W/m2
07:06 64.2 °F /  17.9 °C 56.1 °F /  13.4 °C 29.63in /  1003.3hPa Calm   1.0mph /  1.6km/h 75% 0.00in /  0mm 21.0 W/m2
07:12 64.2 °F /  17.9 °C 55.4 °F /  13 °C 29.63in /  1003.3hPa Calm     73% 0.00in /  0mm 23.0 W/m2
07:18 64.6 °F /  18.1 °C 55.8 °F /  13.2 °C 29.63in /  1003.3hPa NE 2.0mph /  3.2km/h 2.0mph /  3.2km/h 73% 0.00in /  0mm 25.0 W/m2
07:24 64.9 °F /  18.3 °C 56.1 °F /  13.4 °C 29.63in /  1003.3hPa Calm   1.0mph /  1.6km/h 73% 0.00in /  0mm 26.0 W/m2
07:30 65.3 °F /  18.5 °C 56.1 °F /  13.4 °C 29.63in /  1003.3hPa Calm   1.0mph /  1.6km/h 72% 0.00in /  0mm 28.0 W/m2
07:37 65.8 °F /  18.8 °C 55.8 °F /  13.2 °C 29.63in /  1003.3hPa NNW 2.0mph /  3.2km/h 2.0mph /  3.2km/h 70% 0.00in /  0mm 28.0 W/m2
07:41 66.4 °F /  19.1 °C 56.3 °F /  13.5 °C 29.63in /  1003.3hPa NNW 0.9mph /  1.4km/h 2.0mph /  3.2km/h 70% 0.00in /  0mm 33.0 W/m2
07:47 66.9 °F /  19.4 °C 56.5 °F /  13.6 °C 29.63in /  1003.3hPa Calm   1.0mph /  1.6km/h 69% 0.00in /  0mm 278.0 W/m2
07:53 67.6 °F /  19.8 °C 55.9 °F /  13.3 °C 29.63in /  1003.3hPa Calm   1.0mph /  1.6km/h 66% 0.00in /  0mm 313.0 W/m2
07:59 68.7 °F /  20.4 °C 55.6 °F /  13.1 °C 29.63in /  1003.3hPa Calm     63% 0.00in /  0mm 341.0 W/m2
08:05 70.3 °F /  21.3 °C 55.8 °F /  13.2 °C 29.63in /  1003.3hPa Calm     60% 0.00in /  0mm 364.0 W/m2
08:11 72.1 °F /  22.3 °C 56.5 °F /  13.6 °C 29.63in /  1003.3hPa Calm     58% 0.00in /  0mm 387.0 W/m2
08:17 73.0 °F /  22.8 °C 55.4 °F /  13 °C 29.63in /  1003.3hPa Calm   1.0mph /  1.6km/h 54% 0.00in /  0mm 413.0 W/m2
08:24 73.0 °F /  22.8 °C 54.9 °F /  12.7 °C 29.63in /  1003.3hPa Calm   2.0mph /  3.2km/h 53% 0.00in /  0mm 438.0 W/m2
08:30 73.6 °F /  23.1 °C 54.9 °F /  12.7 °C 29.63in /  1003.3hPa Calm   1.0mph /  1.6km/h 52% 0.00in /  0mm 466.0 W/m2
08:36 74.1 °F /  23.4 °C 54.3 °F /  12.4 °C 29.63in /  1003.3hPa WSW 0.9mph /  1.4km/h 2.0mph /  3.2km/h 50% 0.00in /  0mm 489.0 W/m2
08:42 74.7 °F /  23.7 °C 52.5 °F /  11.4 °C 29.63in /  1003.3hPa NW 0.9mph /  1.4km/h 1.0mph /  1.6km/h 46% 0.00in /  0mm 512.0 W/m2
08:48 75.6 °F /  24.2 °C 54.0 °F /  12.2 °C 29.63in /  1003.3hPa Calm     47% 0.00in /  0mm 534.0 W/m2
08:54 76.3 °F /  24.6 °C 54.5 °F /  12.5 °C 29.63in /  1003.3hPa Calm   3.0mph /  4.8km/h 47% 0.00in /  0mm 555.0 W/m2
09:00 76.6 °F /  24.8 °C 54.3 °F /  12.4 °C 29.63in /  1003.3hPa Calm   1.0mph /  1.6km/h 46% 0.00in /  0mm 575.0 W/m2
09:06 77.4 °F /  25.2 °C 54.3 °F /  12.4 °C 29.63in /  1003.3hPa Calm   6.0mph /  9.7km/h 45% 0.00in /  0mm 601.0 W/m2
09:13 77.9 °F /  25.5 °C 54.3 °F /  12.4 °C 29.63in /  1003.3hPa Calm   6.0mph /  9.7km/h 44% 0.00in /  0mm 570.0 W/m2
09:19 78.3 °F /  25.7 °C 54.0 °F /  12.2 °C 29.63in /  1003.3hPa Calm   8.0mph /  12.9km/h 43% 0.00in /  0mm 661.0 W/m2
09:25 78.4 °F /  25.8 °C 54.7 °F /  12.6 °C 29.63in /  1003.3hPa South 4.0mph /  6.4km/h 9.0mph /  14.5km/h 44% 0.00in /  0mm 693.0 W/m2
09:31 78.8 °F /  26 °C 55.0 °F /  12.8 °C 29.63in /  1003.3hPa SSW 2.0mph /  3.2km/h 7.0mph /  11.3km/h 44% 0.00in /  0mm 707.0 W/m2
09:37 79.2 °F /  26.2 °C 54.7 °F /  12.6 °C 29.63in /  1003.3hPa SSE 0.9mph /  1.4km/h 8.0mph /  12.9km/h 43% 0.00in /  0mm 724.0 W/m2
09:43 79.5 °F /  26.4 °C 55.0 °F /  12.8 °C 29.63in /  1003.3hPa SSE 6.9mph /  11.1km/h 10.0mph /  16.1km/h 43% 0.00in /  0mm 742.0 W/m2
09:49 80.1 °F /  26.7 °C 54.9 °F /  12.7 °C 29.63in /  1003.3hPa SSE 6.0mph /  9.7km/h 11.0mph /  17.7km/h 42% 0.00in /  0mm 772.0 W/m2
09:55 80.8 °F /  27.1 °C 54.9 °F /  12.7 °C 29.63in /  1003.3hPa ESE 6.0mph /  9.7km/h 11.0mph /  17.7km/h 41% 0.00in /  0mm 777.0 W/m2
10:02 81.1 °F /  27.3 °C 55.2 °F /  12.9 °C 29.63in /  1003.3hPa SSE 6.0mph /  9.7km/h 7.0mph /  11.3km/h 41% 0.00in /  0mm 796.0 W/m2
10:08 81.9 °F /  27.7 °C 55.2 °F /  12.9 °C 29.63in /  1003.3hPa SE 4.9mph /  7.9km/h 7.0mph /  11.3km/h 40% 0.00in /  0mm 814.0 W/m2
10:14 82.0 °F /  27.8 °C 55.4 °F /  13 °C 29.63in /  1003.3hPa SE 4.9mph /  7.9km/h 6.0mph /  9.7km/h 40% 0.00in /  0mm 846.0 W/m2
10:20 82.4 °F /  28 °C 55.0 °F /  12.8 °C 29.63in /  1003.3hPa SW 2.9mph /  4.7km/h 9.0mph /  14.5km/h 39% 0.00in /  0mm 918.0 W/m2
10:26 81.9 °F /  27.7 °C 53.1 °F /  11.7 °C 29.63in /  1003.3hPa SSW 6.0mph /  9.7km/h 9.0mph /  14.5km/h 37% 0.00in /  0mm 153.0 W/m2
10:32 81.0 °F /  27.2 °C 53.6 °F /  12 °C 29.64in /  1003.6hPa SSE 0.9mph /  1.4km/h 5.0mph /  8km/h 39% 0.00in /  0mm 167.0 W/m2
10:38 81.0 °F /  27.2 °C 52.2 °F /  11.2 °C 29.64in /  1003.6hPa East 2.9mph /  4.7km/h 10.0mph /  16.1km/h 37% 0.00in /  0mm 1032.0 W/m2
10:45 82.2 °F /  27.9 °C 53.4 °F /  11.9 °C 29.64in /  1003.6hPa Calm   8.0mph /  12.9km/h 37% 0.00in /  0mm 1088.0 W/m2
10:51 83.3 °F /  28.5 °C 52.0 °F /  11.1 °C 29.64in /  1003.6hPa SE 2.0mph /  3.2km/h 8.0mph /  12.9km/h 34% 0.00in /  0mm 1039.0 W/m2
10:57 84.0 °F /  28.9 °C 52.7 °F /  11.5 °C 29.63in /  1003.3hPa SE 4.0mph /  6.4km/h 9.0mph /  14.5km/h 34% 0.00in /  0mm 1085.0 W/m2
11:03 84.0 °F /  28.9 °C 52.7 °F /  11.5 °C 29.63in /  1003.3hPa East 2.0mph /  3.2km/h 11.0mph /  17.7km/h 34% 0.00in /  0mm 1085.0 W/m2
11:09 84.4 °F /  29.1 °C 52.9 °F /  11.6 °C 29.63in /  1003.3hPa East 2.9mph /  4.7km/h 8.0mph /  12.9km/h 34% 0.00in /  0mm 1099.0 W/m2
11:15 84.6 °F /  29.2 °C 51.4 °F /  10.8 °C 29.63in /  1003.3hPa ENE 2.9mph /  4.7km/h 12.0mph /  19.3km/h 32% 0.00in /  0mm 163.0 W/m2
11:21 84.0 °F /  28.9 °C 52.7 °F /  11.5 °C 29.63in /  1003.3hPa ENE 2.0mph /  3.2km/h 7.0mph /  11.3km/h 34% 0.00in /  0mm 1201.0 W/m2
11:27 84.6 °F /  29.2 °C 50.5 °F /  10.3 °C 29.63in /  1003.3hPa ESE 6.9mph /  11.1km/h 11.0mph /  17.7km/h 31% 0.00in /  0mm 1118.0 W/m2
11:34 85.3 °F /  29.6 °C 52.2 °F /  11.2 °C 29.63in /  1003.3hPa NE 2.0mph /  3.2km/h 8.0mph /  12.9km/h 32% 0.00in /  0mm 1114.0 W/m2
11:40 85.8 °F /  29.9 °C 52.5 °F /  11.4 °C 29.63in /  1003.3hPa ESE 6.0mph /  9.7km/h 13.0mph /  20.9km/h 32% 0.00in /  0mm 1113.0 W/m2
11:46 86.0 °F /  30 °C 52.7 °F /  11.5 °C 29.63in /  1003.3hPa East 2.9mph /  4.7km/h 10.0mph /  16.1km/h 32% 0.00in /  0mm 1090.0 W/m2
11:52 85.8 °F /  29.9 °C 51.6 °F /  10.9 °C 29.63in /  1003.3hPa SSE 2.0mph /  3.2km/h 7.0mph /  11.3km/h 31% 0.00in /  0mm 1116.0 W/m2
11:58 86.2 °F /  30.1 °C 52.9 °F /  11.6 °C 29.63in /  1003.3hPa Calm   8.0mph /  12.9km/h 32% 0.00in /  0mm 1104.0 W/m2
12:04 86.5 °F /  30.3 °C 51.4 °F /  10.8 °C 29.63in /  1003.3hPa ESE 2.9mph /  4.7km/h 10.0mph /  16.1km/h 30% 0.00in /  0mm 1143.0 W/m2
12:10 86.7 °F /  30.4 °C 51.6 °F /  10.9 °C 29.63in /  1003.3hPa SE 4.9mph /  7.9km/h 9.0mph /  14.5km/h 30% 0.00in /  0mm 1183.0 W/m2
12:17 86.4 °F /  30.2 °C 52.2 °F /  11.2 °C 29.63in /  1003.3hPa SE 6.9mph /  11.1km/h 10.0mph /  16.1km/h 31% 0.00in /  0mm 1185.0 W/m2
12:23 86.2 °F /  30.1 °C 52.9 °F /  11.6 °C 29.63in /  1003.3hPa ENE 4.0mph /  6.4km/h 6.0mph /  9.7km/h 32% 0.00in /  0mm 236.0 W/m2
12:29 86.4 °F /  30.2 °C 52.2 °F /  11.2 °C 29.62in /  1002.9hPa SE 2.0mph /  3.2km/h 8.0mph /  12.9km/h 31% 0.00in /  0mm 1187.0 W/m2
12:35 86.7 °F /  30.4 °C 52.5 °F /  11.4 °C 29.62in /  1002.9hPa SE 6.0mph /  9.7km/h 6.0mph /  9.7km/h 31% 0.00in /  0mm 1229.0 W/m2
12:41 87.4 °F /  30.8 °C 50.4 °F /  10.2 °C 29.62in /  1002.9hPa SSW 2.9mph /  4.7km/h 8.0mph /  12.9km/h 28% 0.00in /  0mm 204.0 W/m2
12:47 87.1 °F /  30.6 °C 50.0 °F /  10 °C 29.62in /  1002.9hPa SSE 6.9mph /  11.1km/h 15.0mph /  24.1km/h 28% 0.00in /  0mm 1223.0 W/m2
12:53 86.9 °F /  30.5 °C 51.8 °F /  11 °C 29.62in /  1002.9hPa East 2.9mph /  4.7km/h 6.0mph /  9.7km/h 30% 0.00in /  0mm 1199.0 W/m2
12:59 87.1 °F /  30.6 °C 51.8 °F /  11 °C 29.62in /  1002.9hPa SE 2.0mph /  3.2km/h 5.0mph /  8km/h 30% 0.00in /  0mm 1209.0 W/m2
13:05 87.4 °F /  30.8 °C 52.2 °F /  11.2 °C 29.62in /  1002.9hPa South 2.9mph /  4.7km/h 9.0mph /  14.5km/h 30% 0.00in /  0mm 237.0 W/m2
13:11 87.6 °F /  30.9 °C 51.4 °F /  10.8 °C 29.62in /  1002.9hPa ESE 4.9mph /  7.9km/h 12.0mph /  19.3km/h 29% 0.00in /  0mm 1245.0 W/m2
13:18 88.2 °F /  31.2 °C 50.9 °F /  10.5 °C 29.62in /  1002.9hPa ESE 8.1mph /  13km/h 11.0mph /  17.7km/h 28% 0.00in /  0mm 1169.0 W/m2
13:24 88.0 °F /  31.1 °C 49.8 °F /  9.9 °C 29.62in /  1002.9hPa ESE 2.0mph /  3.2km/h 4.0mph /  6.4km/h 27% 0.00in /  0mm 327.0 W/m2
13:30 88.0 °F /  31.1 °C 49.8 °F /  9.9 °C 29.62in /  1002.9hPa SE 4.9mph /  7.9km/h 11.0mph /  17.7km/h 27% 0.00in /  0mm 1211.0 W/m2
13:36 87.3 °F /  30.7 °C 49.3 °F /  9.6 °C 29.61in /  1002.6hPa ESE 8.1mph /  13km/h 9.0mph /  14.5km/h 27% 0.00in /  0mm 257.0 W/m2
13:42 86.5 °F /  30.3 °C 47.7 °F /  8.7 °C 29.62in /  1002.9hPa SE 8.9mph /  14.3km/h 11.0mph /  17.7km/h 26% 0.00in /  0mm 1162.0 W/m2
13:48 87.3 °F /  30.7 °C 47.1 °F /  8.4 °C 29.61in /  1002.6hPa NE 0.9mph /  1.4km/h 4.0mph /  6.4km/h 25% 0.00in /  0mm 1099.0 W/m2
13:54 88.2 °F /  31.2 °C 48.9 °F /  9.4 °C 29.61in /  1002.6hPa East 4.0mph /  6.4km/h 14.0mph /  22.5km/h 26% 0.00in /  0mm 1095.0 W/m2
14:01 89.1 °F /  31.7 °C 48.7 °F /  9.3 °C 29.61in /  1002.6hPa SSE 6.9mph /  11.1km/h 10.0mph /  16.1km/h 25% 0.00in /  0mm 1086.0 W/m2
14:07 89.8 °F /  32.1 °C 49.3 °F /  9.6 °C 29.61in /  1002.6hPa SE 6.0mph /  9.7km/h 16.0mph /  25.7km/h 25% 0.00in /  0mm 1129.0 W/m2
14:13 90.0 °F /  32.2 °C 48.4 °F /  9.1 °C 29.61in /  1002.6hPa SSE 4.0mph /  6.4km/h 11.0mph /  17.7km/h 24% 0.00in /  0mm 1164.0 W/m2
14:19 89.4 °F /  31.9 °C 47.8 °F /  8.8 °C 29.60in /  1002.3hPa ENE 4.0mph /  6.4km/h 14.0mph /  22.5km/h 24% 0.00in /  0mm 1130.0 W/m2
14:25 89.4 °F /  31.9 °C 46.8 °F /  8.2 °C 29.60in /  1002.3hPa South 0.9mph /  1.4km/h 5.0mph /  8km/h 23% 0.00in /  0mm 1069.0 W/m2
14:31 89.6 °F /  32 °C 48.0 °F /  8.9 °C 29.60in /  1002.3hPa South 4.0mph /  6.4km/h 8.0mph /  12.9km/h 24% 0.00in /  0mm 1027.0 W/m2
14:37 89.8 °F /  32.1 °C 48.2 °F /  9 °C 29.60in /  1002.3hPa SSE 8.1mph /  13km/h 10.0mph /  16.1km/h 24% 0.00in /  0mm 1065.0 W/m2
14:43 89.8 °F /  32.1 °C 48.2 °F /  9 °C 29.59in /  1001.9hPa ESE 8.9mph /  14.3km/h 11.0mph /  17.7km/h 24% 0.00in /  0mm 253.0 W/m2
14:50 89.2 °F /  31.8 °C 49.8 °F /  9.9 °C 29.59in /  1001.9hPa ESE 4.9mph /  7.9km/h 11.0mph /  17.7km/h 26% 0.00in /  0mm 675.0 W/m2
14:54 89.2 °F /  31.8 °C 49.8 °F /  9.9 °C 29.59in /  1001.9hPa SE 8.1mph /  13km/h 13.0mph /  20.9km/h 26% 0.00in /  0mm 1121.0 W/m2
15:00 89.6 °F /  32 °C 51.3 °F /  10.7 °C 29.59in /  1001.9hPa SE 4.0mph /  6.4km/h 5.0mph /  8km/h 27% 0.00in /  0mm 271.0 W/m2
15:06 89.4 °F /  31.9 °C 50.0 °F /  10 °C 29.59in /  1001.9hPa South 2.0mph /  3.2km/h 9.0mph /  14.5km/h 26% 0.00in /  0mm 230.0 W/m2
15:12 88.2 °F /  31.2 °C 50.9 °F /  10.5 °C 29.59in /  1001.9hPa East 8.9mph /  14.3km/h 13.0mph /  20.9km/h 28% 0.00in /  0mm 209.0 W/m2
15:18 87.3 °F /  30.7 °C 51.1 °F /  10.6 °C 29.59in /  1001.9hPa ESE 6.9mph /  11.1km/h 10.0mph /  16.1km/h 29% 0.00in /  0mm 1039.0 W/m2
15:24 87.4 °F /  30.8 °C 51.3 °F /  10.7 °C 29.59in /  1001.9hPa ESE 4.9mph /  7.9km/h 14.0mph /  22.5km/h 29% 0.00in /  0mm 297.0 W/m2
15:30 87.1 °F /  30.6 °C 50.9 °F /  10.5 °C 29.58in /  1001.6hPa SE 6.9mph /  11.1km/h 10.0mph /  16.1km/h 29% 0.00in /  0mm 167.0 W/m2
15:37 86.2 °F /  30.1 °C 51.1 °F /  10.6 °C 29.58in /  1001.6hPa ESE 4.0mph /  6.4km/h 6.0mph /  9.7km/h 30% 0.00in /  0mm 146.0 W/m2
15:43 85.6 °F /  29.8 °C 50.7 °F /  10.4 °C 29.58in /  1001.6hPa SE 2.9mph /  4.7km/h 8.0mph /  12.9km/h 30% 0.00in /  0mm 167.0 W/m2
15:49 85.5 °F /  29.7 °C 51.4 °F /  10.8 °C 29.58in /  1001.6hPa East 2.9mph /  4.7km/h 6.0mph /  9.7km/h 31% 0.00in /  0mm 977.0 W/m2
15:55 86.4 °F /  30.2 °C 50.4 °F /  10.2 °C 29.58in /  1001.6hPa SE 6.0mph /  9.7km/h 13.0mph /  20.9km/h 29% 0.00in /  0mm 239.0 W/m2
16:01 86.4 °F /  30.2 °C 51.3 °F /  10.7 °C 29.58in /  1001.6hPa South 4.0mph /  6.4km/h 6.0mph /  9.7km/h 30% 0.00in /  0mm 239.0 W/m2
16:08 86.2 °F /  30.1 °C 49.3 °F /  9.6 °C 29.58in /  1001.6hPa SSE 2.9mph /  4.7km/h 6.0mph /  9.7km/h 28% 0.00in /  0mm 223.0 W/m2
16:13 85.8 °F /  29.9 °C 50.7 °F /  10.4 °C 29.57in /  1001.2hPa SE 2.9mph /  4.7km/h 5.0mph /  8km/h 30% 0.00in /  0mm 250.0 W/m2
16:22 85.8 °F /  29.9 °C 49.8 °F /  9.9 °C 29.57in /  1001.2hPa SE 4.0mph /  6.4km/h 13.0mph /  20.9km/h 29% 0.00in /  0mm 185.0 W/m2
16:28 85.8 °F /  29.9 °C 48.9 °F /  9.4 °C 29.57in /  1001.2hPa Calm   8.0mph /  12.9km/h 28% 0.00in /  0mm 141.0 W/m2
16:34 85.5 °F /  29.7 °C 48.6 °F /  9.2 °C 29.57in /  1001.2hPa East 6.0mph /  9.7km/h 9.0mph /  14.5km/h 28% 0.00in /  0mm 137.0 W/m2
16:40 85.3 °F /  29.6 °C 47.5 °F /  8.6 °C 29.57in /  1001.2hPa East 4.0mph /  6.4km/h 9.0mph /  14.5km/h 27% 0.00in /  0mm 121.0 W/m2
16:46 85.1 °F /  29.5 °C 47.3 °F /  8.5 °C 29.57in /  1001.2hPa SSE 2.9mph /  4.7km/h 10.0mph /  16.1km/h 27% 0.00in /  0mm 121.0 W/m2
16:52 84.9 °F /  29.4 °C 48.2 °F /  9 °C 29.57in /  1001.2hPa SE 4.0mph /  6.4km/h 11.0mph /  17.7km/h 28% 0.00in /  0mm 151.0 W/m2
17:00 84.9 °F /  29.4 °C 48.2 °F /  9 °C 29.57in /  1001.2hPa SE 2.0mph /  3.2km/h 8.0mph /  12.9km/h 28% 0.00in /  0mm 209.0 W/m2
17:07 85.5 °F /  29.7 °C 48.6 °F /  9.2 °C 29.57in /  1001.2hPa East 2.0mph /  3.2km/h 5.0mph /  8km/h 28% 0.00in /  0mm 677.0 W/m2
17:13 86.7 °F /  30.4 °C 47.7 °F /  8.7 °C 29.57in /  1001.2hPa SSE 8.1mph /  13km/h 14.0mph /  22.5km/h 26% 0.00in /  0mm 631.0 W/m2
17:21 88.0 °F /  31.1 °C 47.8 °F /  8.8 °C 29.56in /  1000.9hPa SSE 4.0mph /  6.4km/h 12.0mph /  19.3km/h 25% 0.00in /  0mm 520.0 W/m2
17:27 87.6 °F /  30.9 °C 47.5 °F /  8.6 °C 29.57in /  1001.2hPa SSE 4.9mph /  7.9km/h 8.0mph /  12.9km/h 25% 0.00in /  0mm 111.0 W/m2
17:33 87.1 °F /  30.6 °C 46.9 °F /  8.3 °C 29.56in /  1000.9hPa SE 4.0mph /  6.4km/h 7.0mph /  11.3km/h 25% 0.00in /  0mm 98.0 W/m2
17:39 86.4 °F /  30.2 °C 46.4 °F /  8 °C 29.57in /  1001.2hPa SSE 0.9mph /  1.4km/h 12.0mph /  19.3km/h 25% 0.00in /  0mm 109.0 W/m2
17:45 85.8 °F /  29.9 °C 46.9 °F /  8.3 °C 29.56in /  1000.9hPa ESE 4.0mph /  6.4km/h 11.0mph /  17.7km/h 26% 0.00in /  0mm 127.0 W/m2
17:51 86.2 °F /  30.1 °C 46.2 °F /  7.9 °C 29.57in /  1001.2hPa ESE 8.1mph /  13km/h 13.0mph /  20.9km/h 25% 0.00in /  0mm 309.0 W/m2
17:58 86.2 °F /  30.1 °C 46.2 °F /  7.9 °C 29.57in /  1001.2hPa ENE 6.0mph /  9.7km/h 9.0mph /  14.5km/h 25% 0.00in /  0mm 371.0 W/m2
20:19 81.0 °F /  27.2 °C 41.9 °F /  5.5 °C 29.61in /  1002.6hPa ENE 6.0mph /  9.7km/h 10.0mph /  16.1km/h 25% 0.00in /  0mm 0.0 W/m2
21:07 79.9 °F /  26.6 °C 41.0 °F /  5 °C 29.63in /  1003.3hPa SE 6.0mph /  9.7km/h 10.0mph /  16.1km/h 25% 0.00in /  0mm 0.0 W/m2
23:30 73.6 °F /  23.1 °C 39.4 °F /  4.1 °C 29.66in /  1004.3hPa SE 2.0mph /  3.2km/h 3.0mph /  4.8km/h 29% 0.00in /  0mm 0.0 W/m2
23:32 73.6 °F /  23.1 °C 39.4 °F /  4.1 °C 29.66in /  1004.3hPa East 0.9mph /  1.4km/h 3.0mph /  4.8km/h 29% 0.00in /  0mm 0.0 W/m2
23:34 73.8 °F /  23.2 °C 39.6 °F /  4.2 °C 29.66in /  1004.3hPa Calm   4.0mph /  6.4km/h 29% 0.00in /  0mm 0.0 W/m2
23:36 73.8 °F /  23.2 °C 39.6 °F /  4.2 °C 29.66in /  1004.3hPa Calm   3.0mph /  4.8km/h 29% 0.00in /  0mm 0.0 W/m2
23:40 73.8 °F /  23.2 °C 39.6 °F /  4.2 °C 29.66in /  1004.3hPa SE 0.9mph /  1.4km/h 4.0mph /  6.4km/h 29% 0.00in /  0mm 0.0 W/m2
23:44 73.9 °F /  23.3 °C 38.8 °F /  3.8 °C 29.66in /  1004.3hPa ESE 0.9mph /  1.4km/h 2.0mph /  3.2km/h 28% 0.00in /  0mm 0.0 W/m2
23:46 73.9 °F /  23.3 °C 39.7 °F /  4.3 °C 29.66in /  1004.3hPa ESE 0.9mph /  1.4km/h 1.0mph /  1.6km/h 29% 0.00in /  0mm 0.0 W/m2
23:48 73.9 °F /  23.3 °C 39.7 °F /  4.3 °C 29.65in /  1003.9hPa Calm   1.0mph /  1.6km/h 29% 0.00in /  0mm 0.0 W/m2
23:52 73.8 °F /  23.2 °C 39.6 °F /  4.2 °C 29.65in /  1003.9hPa SE 0.9mph /  1.4km/h 3.0mph /  4.8km/h 29% 0.00in /  0mm 0.0 W/m2
23:58 73.8 °F /  23.2 °C 38.7 °F /  3.7 °C 29.65in /  1003.9hPa SE 2.0mph /  3.2km/h 3.0mph /  4.8km/h 28% 0.00in /  0mm 0.0 W/m2
Olympia, Windhoek, Namibia
Compliments of Weather Underground - 2.75 mb